sensor_id;sensor_type;location;lat;lon;timestamp;pressure;altitude;pressure_sealevel;temperature;humidity
4617;BME280;2321;42.704;23.384;2023-03-15T00:01:58;94501.47;;;6.58;58.13
4617;BME280;2321;42.704;23.384;2023-03-15T00:04:26;94496.00;;;6.59;58.66
4617;BME280;2321;42.704;23.384;2023-03-15T00:06:53;94491.66;;;6.51;59.82
4617;BME280;2321;42.704;23.384;2023-03-15T00:09:20;94481.44;;;6.48;59.38
4617;BME280;2321;42.704;23.384;2023-03-15T00:11:48;94484.09;;;6.48;60.07
4617;BME280;2321;42.704;23.384;2023-03-15T00:14:15;94483.09;;;6.49;59.21
4617;BME280;2321;42.704;23.384;2023-03-15T00:16:44;94480.63;;;6.48;59.02
4617;BME280;2321;42.704;23.384;2023-03-15T00:19:11;94470.44;;;6.45;60.29
4617;BME280;2321;42.704;23.384;2023-03-15T00:21:38;94481.81;;;6.45;59.56
4617;BME280;2321;42.704;23.384;2023-03-15T00:24:08;94484.47;;;6.45;58.88
4617;BME280;2321;42.704;23.384;2023-03-15T00:26:35;94483.47;;;6.46;57.40
4617;BME280;2321;42.704;23.384;2023-03-15T00:29:02;94483.59;;;6.38;57.32
4617;BME280;2321;42.704;23.384;2023-03-15T00:31:30;94495.63;;;6.40;58.02
4617;BME280;2321;42.704;23.384;2023-03-15T00:33:58;94485.22;;;6.39;58.66
4617;BME280;2321;42.704;23.384;2023-03-15T00:36:26;94495.25;;;6.43;58.07
4617;BME280;2321;42.704;23.384;2023-03-15T00:38:54;94472.44;;;6.42;57.07
4617;BME280;2321;42.704;23.384;2023-03-15T00:41:22;94469.81;;;6.42;56.84
4617;BME280;2321;42.704;23.384;2023-03-15T00:43:50;94459.91;;;6.29;56.36
4617;BME280;2321;42.704;23.384;2023-03-15T00:46:18;94462.50;;;6.45;55.87
4617;BME280;2321;42.704;23.384;2023-03-15T00:48:47;94458.41;;;6.42;55.80
4617;BME280;2321;42.704;23.384;2023-03-15T00:51:18;94468.00;;;6.43;55.45
4617;BME280;2321;42.704;23.384;2023-03-15T00:53:46;94465.09;;;6.38;56.12
4617;BME280;2321;42.704;23.384;2023-03-15T00:56:15;94447.75;;;6.35;55.73
4617;BME280;2321;42.704;23.384;2023-03-15T00:58:43;94457.41;;;6.43;56.54
4617;BME280;2321;42.704;23.384;2023-03-15T01:01:12;94439.03;;;6.35;55.08
4617;BME280;2321;42.704;23.384;2023-03-15T01:03:40;94439.66;;;6.37;55.79
4617;BME280;2321;42.704;23.384;2023-03-15T01:06:08;94440.47;;;6.37;55.60
4617;BME280;2321;42.704;23.384;2023-03-15T01:08:37;94445.56;;;6.39;56.08
4617;BME280;2321;42.704;23.384;2023-03-15T01:11:07;94440.72;;;6.42;55.98
4617;BME280;2321;42.704;23.384;2023-03-15T01:13:34;94437.63;;;6.39;55.94
4617;BME280;2321;42.704;23.384;2023-03-15T01:16:01;94428.63;;;6.33;56.35
4617;BME280;2321;42.704;23.384;2023-03-15T01:18:28;94433.38;;;6.38;56.73
4617;BME280;2321;42.704;23.384;2023-03-15T01:20:55;94430.31;;;6.41;56.02
4617;BME280;2321;42.704;23.384;2023-03-15T01:23:22;94420.38;;;6.43;56.72
4617;BME280;2321;42.704;23.384;2023-03-15T01:25:51;94417.69;;;6.36;57.25
4617;BME280;2321;42.704;23.384;2023-03-15T01:28:17;94413.34;;;6.28;58.74
4617;BME280;2321;42.704;23.384;2023-03-15T01:30:48;94411.34;;;6.30;59.13
4617;BME280;2321;42.704;23.384;2023-03-15T01:33:16;94415.78;;;6.30;58.84
4617;BME280;2321;42.704;23.384;2023-03-15T01:35:43;94418.44;;;6.30;59.05
4617;BME280;2321;42.704;23.384;2023-03-15T01:38:10;94413.09;;;6.23;60.08
4617;BME280;2321;42.704;23.384;2023-03-15T01:40:40;94416.38;;;6.25;60.66
4617;BME280;2321;42.704;23.384;2023-03-15T01:43:16;94409.44;;;6.24;59.74
4617;BME280;2321;42.704;23.384;2023-03-15T01:46:02;94409.81;;;6.21;60.41
4617;BME280;2321;42.704;23.384;2023-03-15T01:48:34;94405.16;;;6.23;59.50
4617;BME280;2321;42.704;23.384;2023-03-15T01:51:06;94396.78;;;6.19;59.48
4617;BME280;2321;42.704;23.384;2023-03-15T01:53:35;94389.75;;;6.27;58.57
4617;BME280;2321;42.704;23.384;2023-03-15T01:56:04;94396.66;;;6.28;58.11
4617;BME280;2321;42.704;23.384;2023-03-15T01:58:35;94395.84;;;6.27;57.95
4617;BME280;2321;42.704;23.384;2023-03-15T02:01:02;94391.75;;;6.25;56.90
4617;BME280;2321;42.704;23.384;2023-03-15T02:03:32;94387.41;;;6.17;57.29
4617;BME280;2321;42.704;23.384;2023-03-15T02:06:04;94385.03;;;6.22;56.33
4617;BME280;2321;42.704;23.384;2023-03-15T02:08:36;94387.72;;;6.29;55.75
4617;BME280;2321;42.704;23.384;2023-03-15T02:11:04;94365.50;;;6.23;55.23
4617;BME280;2321;42.704;23.384;2023-03-15T02:13:33;94372.88;;;6.28;54.50
4617;BME280;2321;42.704;23.384;2023-03-15T02:16:01;94373.44;;;6.23;54.91
4617;BME280;2321;42.704;23.384;2023-03-15T02:18:31;94366.78;;;6.27;54.76
4617;BME280;2321;42.704;23.384;2023-03-15T02:21:06;94362.53;;;6.33;54.22
4617;BME280;2321;42.704;23.384;2023-03-15T02:23:34;94361.25;;;6.22;54.92
4617;BME280;2321;42.704;23.384;2023-03-15T02:26:06;94353.69;;;6.19;54.02
4617;BME280;2321;42.704;23.384;2023-03-15T02:28:36;94355.50;;;6.18;53.88
4617;BME280;2321;42.704;23.384;2023-03-15T02:31:05;94351.59;;;6.14;54.32
4617;BME280;2321;42.704;23.384;2023-03-15T02:33:35;94351.50;;;6.07;54.69
4617;BME280;2321;42.704;23.384;2023-03-15T02:36:10;94351.47;;;6.01;55.55
4617;BME280;2321;42.704;23.384;2023-03-15T02:38:40;94342.28;;;5.96;56.62
4617;BME280;2321;42.704;23.384;2023-03-15T02:41:07;94352.38;;;6.08;56.33
4617;BME280;2321;42.704;23.384;2023-03-15T02:43:36;94351.88;;;6.04;56.27
4617;BME280;2321;42.704;23.384;2023-03-15T02:46:05;94367.25;;;5.94;55.75
4617;BME280;2321;42.704;23.384;2023-03-15T02:48:33;94361.53;;;5.90;56.27
4617;BME280;2321;42.704;23.384;2023-03-15T02:51:01;94352.16;;;5.87;56.90
4617;BME280;2321;42.704;23.384;2023-03-15T02:53:28;94349.91;;;5.84;57.19
4617;BME280;2321;42.704;23.384;2023-03-15T02:55:56;94346.44;;;5.84;57.55
4617;BME280;2321;42.704;23.384;2023-03-15T02:58:23;94341.78;;;5.86;56.59
4617;BME280;2321;42.704;23.384;2023-03-15T03:00:52;94338.06;;;5.80;57.76
4617;BME280;2321;42.704;23.384;2023-03-15T03:03:19;94335.41;;;5.80;57.42
4617;BME280;2321;42.704;23.384;2023-03-15T03:05:46;94336.63;;;5.77;58.09
4617;BME280;2321;42.704;23.384;2023-03-15T03:08:13;94338.03;;;5.73;58.21
4617;BME280;2321;42.704;23.384;2023-03-15T03:10:41;94336.75;;;5.69;58.44
4617;BME280;2321;42.704;23.384;2023-03-15T03:13:08;94332.28;;;5.70;58.69
4617;BME280;2321;42.704;23.384;2023-03-15T03:15:35;94325.72;;;5.65;59.00
4617;BME280;2321;42.704;23.384;2023-03-15T03:18:03;94316.81;;;5.66;59.00
4617;BME280;2321;42.704;23.384;2023-03-15T03:20:30;94320.44;;;5.65;58.27
4617;BME280;2321;42.704;23.384;2023-03-15T03:22:57;94306.63;;;5.63;58.82
4617;BME280;2321;42.704;23.384;2023-03-15T03:25:24;94312.78;;;5.71;58.12
4617;BME280;2321;42.704;23.384;2023-03-15T03:27:52;94313.81;;;5.70;58.11
4617;BME280;2321;42.704;23.384;2023-03-15T03:30:21;94306.75;;;5.77;57.75
4617;BME280;2321;42.704;23.384;2023-03-15T03:32:48;94311.78;;;5.72;59.04
4617;BME280;2321;42.704;23.384;2023-03-15T03:35:17;94305.13;;;5.76;58.60
4617;BME280;2321;42.704;23.384;2023-03-15T03:37:44;94300.91;;;5.82;56.96
4617;BME280;2321;42.704;23.384;2023-03-15T03:40:11;94298.81;;;5.77;57.98
4617;BME280;2321;42.704;23.384;2023-03-15T03:42:38;94303.47;;;5.75;59.41
4617;BME280;2321;42.704;23.384;2023-03-15T03:45:07;94286.56;;;5.69;59.13
4617;BME280;2321;42.704;23.384;2023-03-15T03:47:34;94297.38;;;5.74;59.48
4617;BME280;2321;42.704;23.384;2023-03-15T03:50:01;94290.72;;;5.78;59.33
4617;BME280;2321;42.704;23.384;2023-03-15T03:52:29;94294.34;;;5.77;59.68
4617;BME280;2321;42.704;23.384;2023-03-15T03:54:56;94290.50;;;5.80;58.46
4617;BME280;2321;42.704;23.384;2023-03-15T03:57:23;94292.41;;;5.86;58.42
4617;BME280;2321;42.704;23.384;2023-03-15T03:59:50;94288.13;;;5.85;58.89
4617;BME280;2321;42.704;23.384;2023-03-15T04:02:17;94289.31;;;5.83;58.85
4617;BME280;2321;42.704;23.384;2023-03-15T04:04:44;94294.88;;;5.88;58.65
4617;BME280;2321;42.704;23.384;2023-03-15T04:07:14;94288.56;;;5.89;59.18
4617;BME280;2321;42.704;23.384;2023-03-15T04:09:43;94277.03;;;5.97;58.45
4617;BME280;2321;42.704;23.384;2023-03-15T04:12:10;94282.41;;;6.04;58.22
4617;BME280;2321;42.704;23.384;2023-03-15T04:14:37;94268.75;;;6.00;58.43
4617;BME280;2321;42.704;23.384;2023-03-15T04:17:04;94271.19;;;6.02;58.37
4617;BME280;2321;42.704;23.384;2023-03-15T04:19:33;94266.72;;;6.02;59.08
4617;BME280;2321;42.704;23.384;2023-03-15T04:22:00;94255.69;;;5.92;59.25
4617;BME280;2321;42.704;23.384;2023-03-15T04:24:31;94258.34;;;5.98;59.73
4617;BME280;2321;42.704;23.384;2023-03-15T04:27:00;94270.75;;;5.98;59.98
4617;BME280;2321;42.704;23.384;2023-03-15T04:29:27;94274.28;;;5.83;61.39
4617;BME280;2321;42.704;23.384;2023-03-15T04:31:54;94271.63;;;5.83;60.70
4617;BME280;2321;42.704;23.384;2023-03-15T04:34:26;94272.66;;;5.82;60.19
4617;BME280;2321;42.704;23.384;2023-03-15T04:36:54;94273.09;;;5.86;59.57
4617;BME280;2321;42.704;23.384;2023-03-15T04:39:22;94267.00;;;5.85;59.09
4617;BME280;2321;42.704;23.384;2023-03-15T04:41:49;94257.66;;;5.89;59.71
4617;BME280;2321;42.704;23.384;2023-03-15T04:44:17;94257.50;;;5.91;58.88
4617;BME280;2321;42.704;23.384;2023-03-15T04:46:44;94275.16;;;5.91;59.42
4617;BME280;2321;42.704;23.384;2023-03-15T04:49:11;94264.38;;;5.85;59.41
4617;BME280;2321;42.704;23.384;2023-03-15T04:51:38;94274.97;;;5.92;59.42
4617;BME280;2321;42.704;23.384;2023-03-15T04:54:05;94279.44;;;5.92;59.74
4617;BME280;2321;42.704;23.384;2023-03-15T04:56:32;94279.94;;;5.80;60.67
4617;BME280;2321;42.704;23.384;2023-03-15T04:59:01;94277.56;;;5.85;61.57
4617;BME280;2321;42.704;23.384;2023-03-15T05:01:30;94268.56;;;5.80;61.89
4617;BME280;2321;42.704;23.384;2023-03-15T05:03:57;94272.47;;;5.84;62.55
4617;BME280;2321;42.704;23.384;2023-03-15T05:06:24;94257.22;;;5.86;62.32
4617;BME280;2321;42.704;23.384;2023-03-15T05:08:52;94268.63;;;5.86;61.77
4617;BME280;2321;42.704;23.384;2023-03-15T05:11:19;94261.34;;;5.88;61.83
4617;BME280;2321;42.704;23.384;2023-03-15T05:13:46;94271.72;;;5.90;62.42
4617;BME280;2321;42.704;23.384;2023-03-15T05:16:13;94270.72;;;5.91;63.59
4617;BME280;2321;42.704;23.384;2023-03-15T05:18:42;94261.53;;;5.87;65.24
4617;BME280;2321;42.704;23.384;2023-03-15T05:21:09;94264.44;;;5.99;63.73
4617;BME280;2321;42.704;23.384;2023-03-15T05:23:37;94265.50;;;6.05;62.11
4617;BME280;2321;42.704;23.384;2023-03-15T05:26:04;94269.25;;;6.10;60.97
4617;BME280;2321;42.704;23.384;2023-03-15T05:28:31;94267.69;;;6.16;60.83
4617;BME280;2321;42.704;23.384;2023-03-15T05:30:58;94260.75;;;6.15;58.36
4617;BME280;2321;42.704;23.384;2023-03-15T05:33:27;94268.28;;;6.18;57.09
4617;BME280;2321;42.704;23.384;2023-03-15T05:35:55;94268.53;;;6.24;56.46
4617;BME280;2321;42.704;23.384;2023-03-15T05:38:23;94261.22;;;6.26;55.59
4617;BME280;2321;42.704;23.384;2023-03-15T05:40:51;94249.19;;;6.23;55.63
4617;BME280;2321;42.704;23.384;2023-03-15T05:43:19;94265.09;;;6.30;55.74
4617;BME280;2321;42.704;23.384;2023-03-15T05:45:46;94266.50;;;6.26;55.97
4617;BME280;2321;42.704;23.384;2023-03-15T05:48:14;94265.94;;;6.30;55.54
4617;BME280;2321;42.704;23.384;2023-03-15T05:50:42;94252.28;;;6.27;56.22
4617;BME280;2321;42.704;23.384;2023-03-15T05:53:10;94253.91;;;6.28;56.76
4617;BME280;2321;42.704;23.384;2023-03-15T05:55:37;94259.59;;;6.25;57.79
4617;BME280;2321;42.704;23.384;2023-03-15T05:58:04;94253.03;;;6.20;58.08
4617;BME280;2321;42.704;23.384;2023-03-15T06:00:32;94250.84;;;6.24;58.53
4617;BME280;2321;42.704;23.384;2023-03-15T06:02:59;94262.03;;;6.26;59.11
4617;BME280;2321;42.704;23.384;2023-03-15T06:05:26;94278.03;;;6.18;59.95
4617;BME280;2321;42.704;23.384;2023-03-15T06:07:53;94270.72;;;6.20;61.42
4617;BME280;2321;42.704;23.384;2023-03-15T06:10:21;94266.88;;;6.23;62.70
4617;BME280;2321;42.704;23.384;2023-03-15T06:12:48;94260.47;;;6.39;61.89
4617;BME280;2321;42.704;23.384;2023-03-15T06:15:17;94262.13;;;6.40;61.45
4617;BME280;2321;42.704;23.384;2023-03-15T06:17:44;94263.84;;;6.54;61.39
4617;BME280;2321;42.704;23.384;2023-03-15T06:20:11;94265.09;;;6.59;61.37
4617;BME280;2321;42.704;23.384;2023-03-15T06:22:38;94249.91;;;6.74;61.56
4617;BME280;2321;42.704;23.384;2023-03-15T06:25:06;94251.81;;;6.94;60.60
4617;BME280;2321;42.704;23.384;2023-03-15T06:27:35;94262.66;;;7.13;61.07
4617;BME280;2321;42.704;23.384;2023-03-15T06:30:03;94262.53;;;7.35;59.94
4617;BME280;2321;42.704;23.384;2023-03-15T06:32:30;94255.03;;;7.59;60.43
4617;BME280;2321;42.704;23.384;2023-03-15T06:34:57;94248.72;;;7.74;59.40
4617;BME280;2321;42.704;23.384;2023-03-15T06:37:24;94248.09;;;7.85;57.22
4617;BME280;2321;42.704;23.384;2023-03-15T06:39:51;94241.78;;;7.80;56.17
4617;BME280;2321;42.704;23.384;2023-03-15T06:42:19;94242.19;;;7.77;56.52
4617;BME280;2321;42.704;23.384;2023-03-15T06:44:47;94252.41;;;7.87;57.92
4617;BME280;2321;42.704;23.384;2023-03-15T06:47:14;94245.06;;;8.02;57.75
4617;BME280;2321;42.704;23.384;2023-03-15T06:49:41;94245.88;;;8.03;55.61
4617;BME280;2321;42.704;23.384;2023-03-15T06:52:08;94237.72;;;8.11;56.49
4617;BME280;2321;42.704;23.384;2023-03-15T06:54:35;94242.59;;;8.21;55.04
4617;BME280;2321;42.704;23.384;2023-03-15T06:57:02;94262.19;;;8.34;54.45
4617;BME280;2321;42.704;23.384;2023-03-15T06:59:29;94254.41;;;8.46;54.76
4617;BME280;2321;42.704;23.384;2023-03-15T07:01:57;94244.97;;;8.57;54.90
4617;BME280;2321;42.704;23.384;2023-03-15T07:04:24;94243.34;;;8.69;54.48
4617;BME280;2321;42.704;23.384;2023-03-15T07:06:51;94238.84;;;8.77;53.70
4617;BME280;2321;42.704;23.384;2023-03-15T07:09:19;94237.78;;;8.78;53.11
4617;BME280;2321;42.704;23.384;2023-03-15T07:11:46;94240.03;;;8.74;52.53
4617;BME280;2321;42.704;23.384;2023-03-15T07:14:13;94239.84;;;8.76;52.44
4617;BME280;2321;42.704;23.384;2023-03-15T07:16:40;94246.34;;;8.87;53.70
4617;BME280;2321;42.704;23.384;2023-03-15T07:19:08;94229.38;;;8.95;52.35
4617;BME280;2321;42.704;23.384;2023-03-15T07:21:35;94216.69;;;8.97;52.00
4617;BME280;2321;42.704;23.384;2023-03-15T07:24:02;94222.56;;;9.06;53.28
4617;BME280;2321;42.704;23.384;2023-03-15T07:26:29;94235.41;;;9.15;51.65
4617;BME280;2321;42.704;23.384;2023-03-15T07:28:56;94224.50;;;9.31;51.83
4617;BME280;2321;42.704;23.384;2023-03-15T07:31:23;94224.78;;;9.48;52.88
4617;BME280;2321;42.704;23.384;2023-03-15T07:33:51;94224.56;;;9.56;51.40
4617;BME280;2321;42.704;23.384;2023-03-15T07:36:19;94219.78;;;9.65;50.97
4617;BME280;2321;42.704;23.384;2023-03-15T07:38:46;94216.69;;;9.68;50.65
4617;BME280;2321;42.704;23.384;2023-03-15T07:41:13;94212.22;;;9.69;50.84
4617;BME280;2321;42.704;23.384;2023-03-15T07:43:40;94211.75;;;9.72;51.39
4617;BME280;2321;42.704;23.384;2023-03-15T07:46:07;94225.38;;;9.83;52.72
4617;BME280;2321;42.704;23.384;2023-03-15T07:48:34;94222.94;;;10.07;53.04
4617;BME280;2321;42.704;23.384;2023-03-15T07:51:01;94225.56;;;10.32;49.77
4617;BME280;2321;42.704;23.384;2023-03-15T07:53:29;94228.25;;;10.51;50.31
4617;BME280;2321;42.704;23.384;2023-03-15T07:55:56;94235.91;;;10.66;50.20
4617;BME280;2321;42.704;23.384;2023-03-15T07:58:23;94231.25;;;10.81;49.86
4617;BME280;2321;42.704;23.384;2023-03-15T08:00:53;94231.69;;;10.96;49.98
4617;BME280;2321;42.704;23.384;2023-03-15T08:03:20;94220.50;;;11.06;48.82
4617;BME280;2321;42.704;23.384;2023-03-15T08:05:48;94220.25;;;11.08;46.48
4617;BME280;2321;42.704;23.384;2023-03-15T08:08:15;94213.66;;;11.10;46.55
4617;BME280;2321;42.704;23.384;2023-03-15T08:10:44;94201.53;;;11.15;47.01
4617;BME280;2321;42.704;23.384;2023-03-15T08:13:11;94214.41;;;11.18;46.57
4617;BME280;2321;42.704;23.384;2023-03-15T08:15:39;94210.16;;;11.29;47.65
4617;BME280;2321;42.704;23.384;2023-03-15T08:18:06;94206.38;;;11.37;47.60
4617;BME280;2321;42.704;23.384;2023-03-15T08:20:33;94187.84;;;11.42;46.88
4617;BME280;2321;42.704;23.384;2023-03-15T08:23:00;94179.94;;;11.35;46.73
4617;BME280;2321;42.704;23.384;2023-03-15T08:25:27;94161.72;;;11.32;46.76
4617;BME280;2321;42.704;23.384;2023-03-15T08:27:55;94165.94;;;11.40;47.52
4617;BME280;2321;42.704;23.384;2023-03-15T08:30:23;94176.38;;;11.53;47.64
4617;BME280;2321;42.704;23.384;2023-03-15T08:32:50;94173.75;;;11.65;46.41
4617;BME280;2321;42.704;23.384;2023-03-15T08:35:18;94177.38;;;11.71;47.43
4617;BME280;2321;42.704;23.384;2023-03-15T08:37:46;94174.47;;;11.85;46.77
4617;BME280;2321;42.704;23.384;2023-03-15T08:40:14;94186.69;;;11.93;46.56
4617;BME280;2321;42.704;23.384;2023-03-15T08:42:43;94185.41;;;11.95;46.37
4617;BME280;2321;42.704;23.384;2023-03-15T08:45:12;94178.53;;;11.99;45.67
4617;BME280;2321;42.704;23.384;2023-03-15T08:47:41;94189.47;;;12.10;45.29
4617;BME280;2321;42.704;23.384;2023-03-15T08:50:10;94183.34;;;12.22;46.28
4617;BME280;2321;42.704;23.384;2023-03-15T08:52:38;94153.88;;;12.16;44.46
4617;BME280;2321;42.704;23.384;2023-03-15T08:55:06;94173.94;;;12.31;46.38
4617;BME280;2321;42.704;23.384;2023-03-15T08:57:33;94175.78;;;12.30;45.11
4617;BME280;2321;42.704;23.384;2023-03-15T09:00:02;94185.88;;;12.28;44.27
4617;BME280;2321;42.704;23.384;2023-03-15T09:02:33;94182.50;;;12.21;45.46
4617;BME280;2321;42.704;23.384;2023-03-15T09:05:00;94182.50;;;12.21;45.51
4617;BME280;2321;42.704;23.384;2023-03-15T09:07:28;94184.63;;;12.19;44.65
4617;BME280;2321;42.704;23.384;2023-03-15T09:09:57;94183.34;;;12.22;44.91
4617;BME280;2321;42.704;23.384;2023-03-15T09:12:24;94182.28;;;12.23;44.99
4617;BME280;2321;42.704;23.384;2023-03-15T09:14:52;94189.03;;;12.25;44.24
4617;BME280;2321;42.704;23.384;2023-03-15T09:17:19;94176.25;;;12.27;43.82
4617;BME280;2321;42.704;23.384;2023-03-15T09:19:47;94178.44;;;12.30;45.06
4617;BME280;2321;42.704;23.384;2023-03-15T09:22:14;94181.38;;;12.29;43.97
4617;BME280;2321;42.704;23.384;2023-03-15T09:24:41;94183.56;;;12.32;45.05
4617;BME280;2321;42.704;23.384;2023-03-15T09:27:08;94182.41;;;12.28;44.92
4617;BME280;2321;42.704;23.384;2023-03-15T09:29:36;94175.44;;;12.27;45.41
4617;BME280;2321;42.704;23.384;2023-03-15T09:32:03;94177.31;;;12.38;44.84
4617;BME280;2321;42.704;23.384;2023-03-15T09:34:30;94179.25;;;12.43;44.56
4617;BME280;2321;42.704;23.384;2023-03-15T09:36:58;94176.22;;;12.39;44.34
4617;BME280;2321;42.704;23.384;2023-03-15T09:39:25;94178.09;;;12.39;44.82
4617;BME280;2321;42.704;23.384;2023-03-15T09:41:54;94163.25;;;12.43;43.93
4617;BME280;2321;42.704;23.384;2023-03-15T09:44:43;94173.09;;;12.42;43.76
4617;BME280;2321;42.704;23.384;2023-03-15T09:47:26;94161.00;;;12.52;44.26
4617;BME280;2321;42.704;23.384;2023-03-15T09:49:56;94156.84;;;12.56;43.64
4617;BME280;2321;42.704;23.384;2023-03-15T09:52:33;94156.84;;;12.56;43.76
4617;BME280;2321;42.704;23.384;2023-03-15T09:55:08;94158.34;;;12.52;43.23
4617;BME280;2321;42.704;23.384;2023-03-15T09:57:42;94154.38;;;12.55;43.27
4617;BME280;2321;42.704;23.384;2023-03-15T10:00:14;94144.53;;;12.55;42.89
4617;BME280;2321;42.704;23.384;2023-03-15T10:02:51;94148.47;;;12.52;43.58
4617;BME280;2321;42.704;23.384;2023-03-15T10:05:27;94140.25;;;12.54;43.98
4617;BME280;2321;42.704;23.384;2023-03-15T10:07:56;94146.97;;;12.57;43.07
4617;BME280;2321;42.704;23.384;2023-03-15T10:10:27;94154.03;;;12.63;43.57
4617;BME280;2321;42.704;23.384;2023-03-15T10:13:05;94153.56;;;12.66;43.09
4617;BME280;2321;42.704;23.384;2023-03-15T10:15:41;94153.22;;;12.62;43.94
4617;BME280;2321;42.704;23.384;2023-03-15T10:18:21;94149.03;;;12.67;43.69
4617;BME280;2321;42.704;23.384;2023-03-15T10:20:55;94145.78;;;12.64;43.54
4617;BME280;2321;42.704;23.384;2023-03-15T10:23:35;94147.50;;;12.71;43.86
4617;BME280;2321;42.704;23.384;2023-03-15T10:26:05;94146.09;;;12.80;43.38
4617;BME280;2321;42.704;23.384;2023-03-15T10:28:34;94147.56;;;12.88;43.71
4617;BME280;2321;42.704;23.384;2023-03-15T10:31:10;94145.50;;;12.90;43.20
4617;BME280;2321;42.704;23.384;2023-03-15T10:33:38;94143.25;;;12.99;43.33
4617;BME280;2321;42.704;23.384;2023-03-15T10:36:13;94137.47;;;12.90;42.90
4617;BME280;2321;42.704;23.384;2023-03-15T10:38:43;94121.16;;;12.74;43.15
4617;BME280;2321;42.704;23.384;2023-03-15T10:41:12;94137.47;;;12.90;42.68
4617;BME280;2321;42.704;23.384;2023-03-15T10:43:40;94145.00;;;12.93;44.05
4617;BME280;2321;42.704;23.384;2023-03-15T10:46:09;94141.88;;;12.96;44.32
4617;BME280;2321;42.704;23.384;2023-03-15T10:48:38;94135.38;;;12.92;43.94
4617;BME280;2321;42.704;23.384;2023-03-15T10:51:13;94137.56;;;12.95;43.23
4617;BME280;2321;42.704;23.384;2023-03-15T10:53:52;94132.22;;;12.95;42.97
4617;BME280;2321;42.704;23.384;2023-03-15T10:56:22;94133.03;;;12.96;44.01
4617;BME280;2321;42.704;23.384;2023-03-15T10:58:52;94133.69;;;13.03;43.09
4617;BME280;2321;42.704;23.384;2023-03-15T11:01:25;94138.38;;;12.96;42.70
4617;BME280;2321;42.704;23.384;2023-03-15T11:04:01;94132.22;;;12.95;43.35
4617;BME280;2321;42.704;23.384;2023-03-15T11:06:40;94140.22;;;12.95;42.67
4617;BME280;2321;42.704;23.384;2023-03-15T11:09:11;94138.09;;;12.80;42.47
4617;BME280;2321;42.704;23.384;2023-03-15T11:11:54;94134.72;;;12.73;43.19
4617;BME280;2321;42.704;23.384;2023-03-15T11:14:23;94127.31;;;12.75;43.49
4617;BME280;2321;42.704;23.384;2023-03-15T11:16:52;94118.00;;;12.78;43.55
4617;BME280;2321;42.704;23.384;2023-03-15T11:19:22;94125.28;;;12.82;44.49
4617;BME280;2321;42.704;23.384;2023-03-15T11:21:51;94122.47;;;12.89;43.58
4617;BME280;2321;42.704;23.384;2023-03-15T11:24:23;94125.72;;;12.91;43.16
4617;BME280;2321;42.704;23.384;2023-03-15T11:26:52;94131.88;;;12.92;44.60
4617;BME280;2321;42.704;23.384;2023-03-15T11:29:24;94113.00;;;12.81;44.24
4617;BME280;2321;42.704;23.384;2023-03-15T11:31:53;94117.09;;;13.01;45.05
4617;BME280;2321;42.704;23.384;2023-03-15T11:34:27;94124.81;;;13.15;43.64
4617;BME280;2321;42.704;23.384;2023-03-15T11:37:00;94113.97;;;13.22;43.35
4617;BME280;2321;42.704;23.384;2023-03-15T11:39:35;94107.66;;;13.28;43.94
4617;BME280;2321;42.704;23.384;2023-03-15T11:42:07;94104.28;;;13.33;43.98
4617;BME280;2321;42.704;23.384;2023-03-15T11:44:38;94101.69;;;13.38;44.41
4617;BME280;2321;42.704;23.384;2023-03-15T11:47:10;94105.41;;;13.37;44.28
4617;BME280;2321;42.704;23.384;2023-03-15T11:49:44;94110.19;;;13.35;44.14
4617;BME280;2321;42.704;23.384;2023-03-15T11:52:14;94102.34;;;13.45;43.76
4617;BME280;2321;42.704;23.384;2023-03-15T11:54:43;94095.22;;;13.51;42.86
4617;BME280;2321;42.704;23.384;2023-03-15T12:03:38;94093.28;;;13.64;42.52
4617;BME280;2321;42.704;23.384;2023-03-15T12:09:39;94092.88;;;13.72;42.56
4617;BME280;2321;42.704;23.384;2023-03-15T12:12:36;94085.91;;;13.71;42.46
4617;BME280;2321;42.704;23.384;2023-03-15T12:15:42;94089.38;;;13.71;42.57
4617;BME280;2321;42.704;23.384;2023-03-15T12:17:54;94088.19;;;13.62;43.08
4617;BME280;2321;42.704;23.384;2023-03-15T12:20:28;94077.47;;;13.62;42.63
4617;BME280;2321;42.704;23.384;2023-03-15T12:23:12;94071.41;;;13.67;41.98
4617;BME280;2321;42.704;23.384;2023-03-15T12:25:49;94073.50;;;13.65;42.82
4617;BME280;2321;42.704;23.384;2023-03-15T12:28:21;94078.38;;;13.68;42.77
4617;BME280;2321;42.704;23.384;2023-03-15T12:30:53;94084.63;;;13.74;42.23
4617;BME280;2321;42.704;23.384;2023-03-15T12:33:24;94070.94;;;13.70;42.16
4617;BME280;2321;42.704;23.384;2023-03-15T12:35:58;94072.38;;;13.60;41.99
4617;BME280;2321;42.704;23.384;2023-03-15T12:38:34;94080.38;;;13.43;41.84
4617;BME280;2321;42.704;23.384;2023-03-15T12:41:06;94072.19;;;13.33;42.51
4617;BME280;2321;42.704;23.384;2023-03-15T12:43:42;94075.84;;;13.26;42.97
4617;BME280;2321;42.704;23.384;2023-03-15T12:49:11;94061.03;;;13.18;42.57
4617;BME280;2321;42.704;23.384;2023-03-15T12:51:43;94062.69;;;13.07;43.39
4617;BME280;2321;42.704;23.384;2023-03-15T12:54:13;94058.56;;;13.00;43.26
4617;BME280;2321;42.704;23.384;2023-03-15T12:56:44;94062.69;;;12.90;43.25
4617;BME280;2321;42.704;23.384;2023-03-15T12:59:38;94069.38;;;12.76;46.41
4617;BME280;2321;42.704;23.384;2023-03-15T13:02:23;94055.91;;;12.70;48.59
4617;BME280;2321;42.704;23.384;2023-03-15T13:04:59;94050.28;;;12.55;49.48
4617;BME280;2321;42.704;23.384;2023-03-15T13:07:32;94063.78;;;12.48;50.02
4617;BME280;2321;42.704;23.384;2023-03-15T13:10:20;94059.63;;;12.40;50.03
4617;BME280;2321;42.704;23.384;2023-03-15T13:12:54;94047.94;;;12.29;50.36
4617;BME280;2321;42.704;23.384;2023-03-15T13:15:28;94047.56;;;12.37;50.10
4617;BME280;2321;42.704;23.384;2023-03-15T13:18:03;94056.03;;;12.34;49.88
4617;BME280;2321;42.704;23.384;2023-03-15T13:20:52;94057.53;;;12.30;50.25
4617;BME280;2321;42.704;23.384;2023-03-15T13:23:26;94053.16;;;12.36;49.03
4617;BME280;2321;42.704;23.384;2023-03-15T13:26:14;94053.38;;;12.34;49.17
4617;BME280;2321;42.704;23.384;2023-03-15T13:28:47;94061.94;;;12.36;49.83
4617;BME280;2321;42.704;23.384;2023-03-15T13:31:20;94071.66;;;12.42;49.90
4617;BME280;2321;42.704;23.384;2023-03-15T13:33:49;94068.78;;;12.44;49.99
4617;BME280;2321;42.704;23.384;2023-03-15T13:36:22;94071.53;;;12.49;49.84
4617;BME280;2321;42.704;23.384;2023-03-15T13:38:51;94071.19;;;12.46;49.77
4617;BME280;2321;42.704;23.384;2023-03-15T13:41:20;94069.69;;;12.50;49.59
4617;BME280;2321;42.704;23.384;2023-03-15T13:43:49;94081.13;;;12.62;49.27